sensor_id;sensor_type;location;lat;lon;timestamp;pressure;altitude;pressure_sealevel;temperature;humidity
9521;BME280;4798;41.574;23.734;2023-04-05T00:01:13;94474.47;;;8.08;82.86
9521;BME280;4798;41.574;23.734;2023-04-05T00:03:42;94478.84;;;8.23;82.78
9521;BME280;4798;41.574;23.734;2023-04-05T00:06:10;94472.88;;;8.07;83.06
9521;BME280;4798;41.574;23.734;2023-04-05T00:08:42;94479.44;;;8.15;82.31
9521;BME280;4798;41.574;23.734;2023-04-05T00:11:17;94470.94;;;8.23;86.66
9521;BME280;4798;41.574;23.734;2023-04-05T00:13:47;94473.13;;;8.11;82.79
9521;BME280;4798;41.574;23.734;2023-04-05T00:16:15;94469.41;;;8.17;82.04
9521;BME280;4798;41.574;23.734;2023-04-05T00:18:44;94472.22;;;8.30;80.66
9521;BME280;4798;41.574;23.734;2023-04-05T00:21:16;94476.72;;;8.25;80.37
9521;BME280;4798;41.574;23.734;2023-04-05T00:23:47;94476.25;;;8.18;80.58
9521;BME280;4798;41.574;23.734;2023-04-05T00:26:17;94482.09;;;8.10;81.35
9521;BME280;4798;41.574;23.734;2023-04-05T00:28:48;94477.25;;;8.32;80.65
9521;BME280;4798;41.574;23.734;2023-04-05T00:31:16;94482.69;;;8.02;81.07
9521;BME280;4798;41.574;23.734;2023-04-05T00:33:45;94466.19;;;8.20;80.20
9521;BME280;4798;41.574;23.734;2023-04-05T00:36:15;94488.69;;;8.12;81.05
9521;BME280;4798;41.574;23.734;2023-04-05T00:38:45;94485.72;;;8.24;81.22
9521;BME280;4798;41.574;23.734;2023-04-05T00:41:14;94447.59;;;8.40;79.47
9521;BME280;4798;41.574;23.734;2023-04-05T00:43:42;94483.50;;;8.41;79.56
9521;BME280;4798;41.574;23.734;2023-04-05T00:46:12;94496.31;;;8.58;79.22
9521;BME280;4798;41.574;23.734;2023-04-05T00:48:40;94441.41;;;7.77;80.31
9521;BME280;4798;41.574;23.734;2023-04-05T00:51:09;94505.75;;;8.30;83.61
9521;BME280;4798;41.574;23.734;2023-04-05T00:53:39;94491.56;;;8.60;82.11
9521;BME280;4798;41.574;23.734;2023-04-05T00:56:09;94496.09;;;8.54;79.72
9521;BME280;4798;41.574;23.734;2023-04-05T00:58:39;94493.53;;;7.95;79.69
9521;BME280;4798;41.574;23.734;2023-04-05T01:01:14;94489.06;;;8.40;80.69
9521;BME280;4798;41.574;23.734;2023-04-05T01:03:46;94491.53;;;8.21;81.43
9521;BME280;4798;41.574;23.734;2023-04-05T01:06:25;94497.81;;;8.35;80.07
9521;BME280;4798;41.574;23.734;2023-04-05T01:08:59;94489.72;;;8.16;80.52
9521;BME280;4798;41.574;23.734;2023-04-05T01:11:32;94495.38;;;8.44;79.91
9521;BME280;4798;41.574;23.734;2023-04-05T01:14:01;94505.47;;;8.37;80.19
9521;BME280;4798;41.574;23.734;2023-04-05T01:16:31;94504.41;;;7.89;81.25
9521;BME280;4798;41.574;23.734;2023-04-05T01:18:59;94502.53;;;8.38;82.49
9521;BME280;4798;41.574;23.734;2023-04-05T01:25:01;94489.41;;;7.84;81.29
9521;BME280;4798;41.574;23.734;2023-04-05T01:27:54;94508.56;;;7.95;81.65
9521;BME280;4798;41.574;23.734;2023-04-05T01:30:29;94513.25;;;8.08;81.34
9521;BME280;4798;41.574;23.734;2023-04-05T01:33:08;94511.63;;;8.17;83.47
9521;BME280;4798;41.574;23.734;2023-04-05T01:35:48;94518.69;;;8.32;83.06
9521;BME280;4798;41.574;23.734;2023-04-05T01:38:21;94524.84;;;8.17;80.23
9521;BME280;4798;41.574;23.734;2023-04-05T01:40:51;94521.47;;;8.06;80.42
9521;BME280;4798;41.574;23.734;2023-04-05T01:43:20;94515.25;;;8.31;79.31
9521;BME280;4798;41.574;23.734;2023-04-05T01:46:06;94519.09;;;8.00;79.77
9521;BME280;4798;41.574;23.734;2023-04-05T01:48:35;94520.44;;;7.97;80.03
9521;BME280;4798;41.574;23.734;2023-04-05T01:51:04;94527.28;;;8.03;87.16
9521;BME280;4798;41.574;23.734;2023-04-05T01:53:32;94520.00;;;7.80;80.62
9521;BME280;4798;41.574;23.734;2023-04-05T01:56:01;94521.28;;;7.88;81.15
9521;BME280;4798;41.574;23.734;2023-04-05T01:58:29;94526.19;;;8.09;80.84
9521;BME280;4798;41.574;23.734;2023-04-05T02:00:57;94531.22;;;8.06;79.76
9521;BME280;4798;41.574;23.734;2023-04-05T02:03:27;94504.25;;;7.65;80.56
9521;BME280;4798;41.574;23.734;2023-04-05T02:05:56;94529.22;;;7.83;81.74
9521;BME280;4798;41.574;23.734;2023-04-05T02:08:24;94520.28;;;7.79;80.87
9521;BME280;4798;41.574;23.734;2023-04-05T02:10:52;94523.72;;;7.74;81.46
9521;BME280;4798;41.574;23.734;2023-04-05T02:13:21;94520.13;;;7.45;81.95
9521;BME280;4798;41.574;23.734;2023-04-05T02:15:49;94469.50;;;7.48;81.69
9521;BME280;4798;41.574;23.734;2023-04-05T02:18:18;94522.22;;;7.53;82.19
9521;BME280;4798;41.574;23.734;2023-04-05T02:20:50;94529.53;;;7.71;81.74
9521;BME280;4798;41.574;23.734;2023-04-05T02:23:19;94505.94;;;7.41;82.11
9521;BME280;4798;41.574;23.734;2023-04-05T02:25:47;94525.69;;;7.43;87.14
9521;BME280;4798;41.574;23.734;2023-04-05T02:28:15;94532.88;;;7.13;82.99
9521;BME280;4798;41.574;23.734;2023-04-05T02:30:43;94531.25;;;7.27;82.41
9521;BME280;4798;41.574;23.734;2023-04-05T02:33:12;94529.13;;;7.24;82.27
9521;BME280;4798;41.574;23.734;2023-04-05T02:35:40;94528.34;;;7.33;82.65
9521;BME280;4798;41.574;23.734;2023-04-05T02:38:10;94508.56;;;7.41;81.96
9521;BME280;4798;41.574;23.734;2023-04-05T02:40:38;94534.59;;;7.57;81.31
9521;BME280;4798;41.574;23.734;2023-04-05T02:43:08;94522.03;;;7.19;80.94
9521;BME280;4798;41.574;23.734;2023-04-05T02:45:36;94527.75;;;7.46;81.14
9521;BME280;4798;41.574;23.734;2023-04-05T02:48:05;94535.13;;;7.54;80.82
9521;BME280;4798;41.574;23.734;2023-04-05T02:50:33;94535.16;;;7.44;81.90
9521;BME280;4798;41.574;23.734;2023-04-05T02:53:02;94532.28;;;7.46;79.97
9521;BME280;4798;41.574;23.734;2023-04-05T02:55:31;94520.50;;;7.13;80.81
9521;BME280;4798;41.574;23.734;2023-04-05T02:57:59;94534.09;;;7.50;80.06
9521;BME280;4798;41.574;23.734;2023-04-05T03:00:28;94531.28;;;7.12;79.52
9521;BME280;4798;41.574;23.734;2023-04-05T03:02:56;94532.88;;;7.13;80.10
9521;BME280;4798;41.574;23.734;2023-04-05T03:05:24;94538.03;;;7.53;88.31
9521;BME280;4798;41.574;23.734;2023-04-05T03:07:53;94536.00;;;7.25;80.92
9521;BME280;4798;41.574;23.734;2023-04-05T03:10:21;94529.94;;;7.29;81.50
9521;BME280;4798;41.574;23.734;2023-04-05T03:12:53;94536.81;;;7.20;80.43
9521;BME280;4798;41.574;23.734;2023-04-05T03:15:21;94532.84;;;7.28;81.21
9521;BME280;4798;41.574;23.734;2023-04-05T03:17:50;94539.94;;;7.37;79.21
9521;BME280;4798;41.574;23.734;2023-04-05T03:20:18;94541.56;;;7.18;80.50
9521;BME280;4798;41.574;23.734;2023-04-05T03:22:46;94543.94;;;7.10;80.16
9521;BME280;4798;41.574;23.734;2023-04-05T03:25:15;94542.56;;;7.37;79.80
9521;BME280;4798;41.574;23.734;2023-04-05T03:27:43;94547.09;;;7.01;80.40
9521;BME280;4798;41.574;23.734;2023-04-05T03:30:13;94548.34;;;7.39;79.78
9521;BME280;4798;41.574;23.734;2023-04-05T03:32:42;94540.97;;;7.41;79.89
9521;BME280;4798;41.574;23.734;2023-04-05T03:35:10;94538.91;;;7.33;78.89
9521;BME280;4798;41.574;23.734;2023-04-05T03:37:41;94541.25;;;7.40;79.85
9521;BME280;4798;41.574;23.734;2023-04-05T03:40:11;94545.53;;;7.16;80.06
9521;BME280;4798;41.574;23.734;2023-04-05T03:42:39;94552.13;;;6.88;79.94
9521;BME280;4798;41.574;23.734;2023-04-05T03:45:08;94549.22;;;6.74;79.99
9521;BME280;4798;41.574;23.734;2023-04-05T03:47:38;94554.22;;;6.96;79.95
9521;BME280;4798;41.574;23.734;2023-04-05T03:50:07;94552.16;;;6.83;80.92
9521;BME280;4798;41.574;23.734;2023-04-05T03:52:36;94556.84;;;6.66;81.54
9521;BME280;4798;41.574;23.734;2023-04-05T03:55:05;94550.56;;;6.62;80.68
9521;BME280;4798;41.574;23.734;2023-04-05T03:57:35;94552.63;;;7.15;78.92
9521;BME280;4798;41.574;23.734;2023-04-05T04:00:07;94532.91;;;6.52;79.07
9521;BME280;4798;41.574;23.734;2023-04-05T04:02:44;94559.22;;;7.08;78.76
9521;BME280;4798;41.574;23.734;2023-04-05T04:05:13;94514.72;;;6.61;78.90
9521;BME280;4798;41.574;23.734;2023-04-05T04:07:43;94560.56;;;6.85;78.32
9521;BME280;4798;41.574;23.734;2023-04-05T04:10:14;94514.22;;;6.59;79.40
9521;BME280;4798;41.574;23.734;2023-04-05T04:12:43;94569.78;;;6.92;80.95
9521;BME280;4798;41.574;23.734;2023-04-05T04:15:12;94569.50;;;6.99;79.50
9521;BME280;4798;41.574;23.734;2023-04-05T04:17:42;94542.13;;;6.80;79.67
9521;BME280;4798;41.574;23.734;2023-04-05T04:20:13;94535.78;;;6.66;78.89
9521;BME280;4798;41.574;23.734;2023-04-05T04:22:41;94576.09;;;6.66;78.90
9521;BME280;4798;41.574;23.734;2023-04-05T04:25:10;94572.13;;;7.09;79.06
9521;BME280;4798;41.574;23.734;2023-04-05T04:27:43;94575.28;;;6.76;78.96
9521;BME280;4798;41.574;23.734;2023-04-05T04:30:13;94536.59;;;6.66;78.48
9521;BME280;4798;41.574;23.734;2023-04-05T04:32:43;94585.81;;;6.96;78.32
9521;BME280;4798;41.574;23.734;2023-04-05T04:35:22;94581.34;;;7.07;81.48
9521;BME280;4798;41.574;23.734;2023-04-05T04:37:54;94579.47;;;7.37;77.55
9521;BME280;4798;41.574;23.734;2023-04-05T04:40:24;94583.72;;;7.28;76.92
9521;BME280;4798;41.574;23.734;2023-04-05T04:42:52;94596.09;;;7.28;77.11
9521;BME280;4798;41.574;23.734;2023-04-05T04:45:24;94545.81;;;6.89;75.86
9521;BME280;4798;41.574;23.734;2023-04-05T04:47:54;94582.69;;;6.79;76.39
9521;BME280;4798;41.574;23.734;2023-04-05T04:50:22;94577.91;;;7.01;75.61
9521;BME280;4798;41.574;23.734;2023-04-05T04:52:51;94593.72;;;7.11;81.62
9521;BME280;4798;41.574;23.734;2023-04-05T04:55:20;94531.06;;;6.98;76.61
9521;BME280;4798;41.574;23.734;2023-04-05T04:57:51;94598.47;;;7.19;75.35
9521;BME280;4798;41.574;23.734;2023-04-05T05:00:20;94597.13;;;7.37;77.15
9521;BME280;4798;41.574;23.734;2023-04-05T05:02:50;94587.81;;;7.69;75.60
9521;BME280;4798;41.574;23.734;2023-04-05T05:05:20;94598.63;;;7.78;77.30
9521;BME280;4798;41.574;23.734;2023-04-05T05:07:49;94601.59;;;7.36;74.00
9521;BME280;4798;41.574;23.734;2023-04-05T05:10:19;94601.03;;;7.64;74.86
9521;BME280;4798;41.574;23.734;2023-04-05T05:12:47;94604.16;;;7.82;74.96
9521;BME280;4798;41.574;23.734;2023-04-05T05:15:15;94595.78;;;7.54;74.71
9521;BME280;4798;41.574;23.734;2023-04-05T05:17:44;94607.28;;;7.89;77.17
9521;BME280;4798;41.574;23.734;2023-04-05T05:20:13;94597.22;;;7.96;81.16
9521;BME280;4798;41.574;23.734;2023-04-05T05:22:42;94603.19;;;8.26;73.94
9521;BME280;4798;41.574;23.734;2023-04-05T05:25:12;94610.13;;;8.02;76.93
9521;BME280;4798;41.574;23.734;2023-04-05T05:27:40;94595.22;;;7.62;71.97
9521;BME280;4798;41.574;23.734;2023-04-05T05:30:10;94610.66;;;8.09;75.72
9521;BME280;4798;41.574;23.734;2023-04-05T05:32:39;94614.16;;;7.85;72.09
9521;BME280;4798;41.574;23.734;2023-04-05T05:35:09;94613.84;;;8.01;71.94
9521;BME280;4798;41.574;23.734;2023-04-05T05:37:37;94609.44;;;7.77;72.21
9521;BME280;4798;41.574;23.734;2023-04-05T05:40:08;94620.50;;;7.79;73.05
9521;BME280;4798;41.574;23.734;2023-04-05T05:42:39;94597.25;;;7.91;71.48
9521;BME280;4798;41.574;23.734;2023-04-05T05:45:08;94623.53;;;8.21;70.83
9521;BME280;4798;41.574;23.734;2023-04-05T05:47:37;94626.66;;;8.82;84.18
9521;BME280;4798;41.574;23.734;2023-04-05T05:50:06;94623.75;;;8.78;76.26
9521;BME280;4798;41.574;23.734;2023-04-05T05:52:35;94615.44;;;8.56;76.18
9521;BME280;4798;41.574;23.734;2023-04-05T05:55:04;94623.97;;;8.43;72.07
9521;BME280;4798;41.574;23.734;2023-04-05T05:57:34;94622.22;;;8.72;73.92
9521;BME280;4798;41.574;23.734;2023-04-05T06:00:06;94627.50;;;8.72;70.45
9521;BME280;4798;41.574;23.734;2023-04-05T06:02:36;94625.22;;;8.56;70.23
9521;BME280;4798;41.574;23.734;2023-04-05T06:05:05;94622.41;;;8.42;70.56
9521;BME280;4798;41.574;23.734;2023-04-05T06:07:35;94629.13;;;8.09;71.47
9521;BME280;4798;41.574;23.734;2023-04-05T06:10:04;94619.50;;;8.39;72.49
9521;BME280;4798;41.574;23.734;2023-04-05T06:12:35;94635.97;;;8.05;69.93
9521;BME280;4798;41.574;23.734;2023-04-05T06:15:04;94631.75;;;8.14;69.92
9521;BME280;4798;41.574;23.734;2023-04-05T06:17:32;94633.53;;;8.24;69.85
9521;BME280;4798;41.574;23.734;2023-04-05T06:20:08;94640.47;;;8.05;70.61
9521;BME280;4798;41.574;23.734;2023-04-05T06:22:38;94638.78;;;8.39;69.45
9521;BME280;4798;41.574;23.734;2023-04-05T06:25:08;94640.47;;;8.00;69.21
9521;BME280;4798;41.574;23.734;2023-04-05T06:27:39;94653.97;;;7.93;71.41
9521;BME280;4798;41.574;23.734;2023-04-05T06:30:08;94647.59;;;8.09;71.25
9521;BME280;4798;41.574;23.734;2023-04-05T06:32:37;94655.19;;;8.21;70.52
9521;BME280;4798;41.574;23.734;2023-04-05T06:35:06;94649.94;;;8.16;70.95
9521;BME280;4798;41.574;23.734;2023-04-05T06:37:35;94646.31;;;8.02;71.71
9521;BME280;4798;41.574;23.734;2023-04-05T06:40:04;94663.63;;;8.23;71.94
9521;BME280;4798;41.574;23.734;2023-04-05T06:42:33;94659.72;;;8.10;71.57
9521;BME280;4798;41.574;23.734;2023-04-05T06:45:03;94620.34;;;7.30;72.13
9521;BME280;4798;41.574;23.734;2023-04-05T06:47:33;94672.44;;;7.88;72.73
9521;BME280;4798;41.574;23.734;2023-04-05T06:50:02;94679.22;;;8.19;72.10
9521;BME280;4798;41.574;23.734;2023-04-05T06:52:31;94675.28;;;8.17;71.31
9521;BME280;4798;41.574;23.734;2023-04-05T06:55:00;94605.28;;;7.55;72.20
9521;BME280;4798;41.574;23.734;2023-04-05T06:57:28;94690.19;;;8.57;72.04
9521;BME280;4798;41.574;23.734;2023-04-05T06:59:56;94691.63;;;8.29;73.56
9521;BME280;4798;41.574;23.734;2023-04-05T07:02:26;94703.13;;;8.58;74.50
9521;BME280;4798;41.574;23.734;2023-04-05T07:04:55;94684.41;;;8.50;77.47
9521;BME280;4798;41.574;23.734;2023-04-05T07:07:30;94704.59;;;8.79;78.10
9521;BME280;4798;41.574;23.734;2023-04-05T07:09:59;94701.66;;;8.86;77.55
9521;BME280;4798;41.574;23.734;2023-04-05T07:12:27;94706.34;;;8.45;77.44
9521;BME280;4798;41.574;23.734;2023-04-05T07:14:55;94710.97;;;7.94;77.47
9521;BME280;4798;41.574;23.734;2023-04-05T07:17:24;94713.69;;;8.58;79.83
9521;BME280;4798;41.574;23.734;2023-04-05T07:19:54;94716.84;;;8.55;78.96
9521;BME280;4798;41.574;23.734;2023-04-05T07:22:22;94719.41;;;8.75;78.91
9521;BME280;4798;41.574;23.734;2023-04-05T07:24:50;94716.72;;;8.26;78.56
9521;BME280;4798;41.574;23.734;2023-04-05T07:27:19;94673.94;;;8.29;78.52
9521;BME280;4798;41.574;23.734;2023-04-05T07:29:47;94726.47;;;8.21;79.66
9521;BME280;4798;41.574;23.734;2023-04-05T07:32:16;94721.75;;;8.03;79.45
9521;BME280;4798;41.574;23.734;2023-04-05T07:34:44;94693.59;;;7.63;80.42
9521;BME280;4798;41.574;23.734;2023-04-05T07:37:15;94728.28;;;8.36;80.45
9521;BME280;4798;41.574;23.734;2023-04-05T07:39:43;94661.56;;;8.10;81.55
9521;BME280;4798;41.574;23.734;2023-04-05T07:42:12;94729.97;;;9.24;80.81
9521;BME280;4798;41.574;23.734;2023-04-05T07:44:40;94730.72;;;9.30;77.10
9521;BME280;4798;41.574;23.734;2023-04-05T07:47:08;94736.41;;;9.13;76.08
9521;BME280;4798;41.574;23.734;2023-04-05T07:49:37;94745.56;;;8.77;77.68
9521;BME280;4798;41.574;23.734;2023-04-05T07:52:08;94720.53;;;8.64;77.70
9521;BME280;4798;41.574;23.734;2023-04-05T07:54:38;94744.78;;;9.59;78.46
9521;BME280;4798;41.574;23.734;2023-04-05T07:57:09;94746.00;;;9.72;74.75
9521;BME280;4798;41.574;23.734;2023-04-05T07:59:37;94742.78;;;9.46;76.67
9521;BME280;4798;41.574;23.734;2023-04-05T08:02:06;94748.13;;;9.41;76.75
9521;BME280;4798;41.574;23.734;2023-04-05T08:04:40;94753.88;;;9.48;75.50
9521;BME280;4798;41.574;23.734;2023-04-05T08:07:08;94739.66;;;9.39;76.62
9521;BME280;4798;41.574;23.734;2023-04-05T08:09:38;94737.38;;;9.61;74.86
9521;BME280;4798;41.574;23.734;2023-04-05T08:12:07;94756.72;;;9.90;73.73
9521;BME280;4798;41.574;23.734;2023-04-05T08:14:37;94754.25;;;9.99;71.67
9521;BME280;4798;41.574;23.734;2023-04-05T08:17:05;94757.03;;;9.84;74.63
9521;BME280;4798;41.574;23.734;2023-04-05T08:19:33;94764.84;;;9.65;73.41
9521;BME280;4798;41.574;23.734;2023-04-05T08:22:02;94769.28;;;9.75;73.07
9521;BME280;4798;41.574;23.734;2023-04-05T08:24:30;94758.47;;;9.71;73.06
9521;BME280;4798;41.574;23.734;2023-04-05T08:27:00;94755.97;;;10.18;71.03
9521;BME280;4798;41.574;23.734;2023-04-05T08:29:28;94756.63;;;9.67;70.34
9521;BME280;4798;41.574;23.734;2023-04-05T08:31:57;94767.63;;;9.84;73.35
9521;BME280;4798;41.574;23.734;2023-04-05T08:34:25;94757.41;;;10.01;69.22
9521;BME280;4798;41.574;23.734;2023-04-05T08:36:57;94769.16;;;10.24;66.38
9521;BME280;4798;41.574;23.734;2023-04-05T08:39:26;94760.91;;;10.96;69.42
9521;BME280;4798;41.574;23.734;2023-04-05T08:42:06;94739.03;;;10.85;67.67
9521;BME280;4798;41.574;23.734;2023-04-05T08:44:36;94680.13;;;10.70;64.81
9521;BME280;4798;41.574;23.734;2023-04-05T08:47:04;94758.28;;;11.33;66.12
9521;BME280;4798;41.574;23.734;2023-04-05T08:49:33;94762.56;;;11.67;66.08
9521;BME280;4798;41.574;23.734;2023-04-05T08:52:02;94756.53;;;11.80;63.21
9521;BME280;4798;41.574;23.734;2023-04-05T08:54:31;94744.97;;;11.89;62.26
9521;BME280;4798;41.574;23.734;2023-04-05T08:57:00;94676.31;;;11.51;61.08
9521;BME280;4798;41.574;23.734;2023-04-05T08:59:31;94748.94;;;12.51;60.33
9521;BME280;4798;41.574;23.734;2023-04-05T09:02:03;94746.56;;;13.18;58.89
9521;BME280;4798;41.574;23.734;2023-04-05T09:04:36;94747.63;;;13.30;56.48
9521;BME280;4798;41.574;23.734;2023-04-05T09:07:11;94664.22;;;12.86;57.36
9521;BME280;4798;41.574;23.734;2023-04-05T09:09:44;94744.09;;;13.79;56.55
9521;BME280;4798;41.574;23.734;2023-04-05T09:12:13;94748.59;;;14.45;56.12
9521;BME280;4798;41.574;23.734;2023-04-05T09:14:44;94744.56;;;14.04;54.17
9521;BME280;4798;41.574;23.734;2023-04-05T09:17:16;94739.66;;;14.50;53.95
9521;BME280;4798;41.574;23.734;2023-04-05T09:19:45;94743.09;;;14.81;54.34
9521;BME280;4798;41.574;23.734;2023-04-05T09:22:16;94747.00;;;15.49;51.95
9521;BME280;4798;41.574;23.734;2023-04-05T09:24:45;94701.06;;;16.15;49.91
9521;BME280;4798;41.574;23.734;2023-04-05T09:27:16;94725.81;;;16.96;50.24
9521;BME280;4798;41.574;23.734;2023-04-05T09:29:47;94717.22;;;18.60;45.54
9521;BME280;4798;41.574;23.734;2023-04-05T09:32:17;94718.03;;;17.95;45.41
9521;BME280;4798;41.574;23.734;2023-04-05T09:34:47;94724.72;;;17.68;45.89
9521;BME280;4798;41.574;23.734;2023-04-05T09:37:20;94728.00;;;17.24;47.75
9521;BME280;4798;41.574;23.734;2023-04-05T09:39:50;94724.22;;;18.07;48.02
9521;BME280;4798;41.574;23.734;2023-04-05T09:42:19;94718.69;;;17.92;43.42
9521;BME280;4798;41.574;23.734;2023-04-05T09:44:55;94725.88;;;17.38;42.98
9521;BME280;4798;41.574;23.734;2023-04-05T09:47:28;94680.84;;;17.52;42.47
9521;BME280;4798;41.574;23.734;2023-04-05T09:49:59;94714.44;;;18.92;44.50
9521;BME280;4798;41.574;23.734;2023-04-05T09:52:29;94685.75;;;19.21;43.26
9521;BME280;4798;41.574;23.734;2023-04-05T09:54:59;94713.94;;;19.51;43.45
9521;BME280;4798;41.574;23.734;2023-04-05T09:57:32;94717.56;;;19.07;39.74
9521;BME280;4798;41.574;23.734;2023-04-05T10:00:03;94709.97;;;20.71;39.29
9521;BME280;4798;41.574;23.734;2023-04-05T10:02:35;94700.31;;;22.06;39.28
9521;BME280;4798;41.574;23.734;2023-04-05T10:05:06;94684.22;;;21.21;40.25
9521;BME280;4798;41.574;23.734;2023-04-05T10:07:37;94703.00;;;20.86;41.18
9521;BME280;4798;41.574;23.734;2023-04-05T10:10:07;94705.63;;;19.68;39.88
9521;BME280;4798;41.574;23.734;2023-04-05T10:12:38;94705.94;;;18.54;40.76
9521;BME280;4798;41.574;23.734;2023-04-05T10:15:09;94701.28;;;17.98;42.23
9521;BME280;4798;41.574;23.734;2023-04-05T10:17:46;94701.16;;;17.73;42.42
9521;BME280;4798;41.574;23.734;2023-04-05T10:20:20;94714.84;;;16.81;43.02
9521;BME280;4798;41.574;23.734;2023-04-05T10:23:07;94711.22;;;17.14;44.52
9521;BME280;4798;41.574;23.734;2023-04-05T10:25:46;94705.53;;;16.87;43.40
9521;BME280;4798;41.574;23.734;2023-04-05T10:28:25;94705.97;;;16.60;44.77
9521;BME280;4798;41.574;23.734;2023-04-05T10:31:07;94708.91;;;18.08;43.01
9521;BME280;4798;41.574;23.734;2023-04-05T10:33:40;94709.59;;;19.10;41.78
9521;BME280;4798;41.574;23.734;2023-04-05T10:36:17;94712.47;;;17.17;41.95
9521;BME280;4798;41.574;23.734;2023-04-05T10:38:59;94708.56;;;17.35;42.81
9521;BME280;4798;41.574;23.734;2023-04-05T10:41:33;94672.66;;;17.48;43.09
9521;BME280;4798;41.574;23.734;2023-04-05T10:44:03;94691.41;;;18.22;42.05
9521;BME280;4798;41.574;23.734;2023-04-05T10:46:53;94707.06;;;18.32;42.55
9521;BME280;4798;41.574;23.734;2023-04-05T10:49:28;94681.50;;;18.02;40.41
9521;BME280;4798;41.574;23.734;2023-04-05T10:52:01;94704.81;;;18.22;41.80
9521;BME280;4798;41.574;23.734;2023-04-05T10:54:32;94706.72;;;18.79;41.78
9521;BME280;4798;41.574;23.734;2023-04-05T10:57:04;94622.44;;;17.04;41.36
9521;BME280;4798;41.574;23.734;2023-04-05T10:59:40;94712.66;;;17.95;41.33
9521;BME280;4798;41.574;23.734;2023-04-05T11:02:12;94707.31;;;17.53;42.94
9521;BME280;4798;41.574;23.734;2023-04-05T11:04:41;94701.84;;;17.70;43.04
9521;BME280;4798;41.574;23.734;2023-04-05T11:07:10;94701.22;;;16.65;42.52
9521;BME280;4798;41.574;23.734;2023-04-05T11:09:49;94717.47;;;15.54;44.74
9521;BME280;4798;41.574;23.734;2023-04-05T11:12:18;94718.16;;;16.78;43.94
9521;BME280;4798;41.574;23.734;2023-04-05T11:14:47;94694.63;;;17.21;42.90
9521;BME280;4798;41.574;23.734;2023-04-05T11:17:27;94652.38;;;15.84;43.72
9521;BME280;4798;41.574;23.734;2023-04-05T11:20:02;94698.13;;;17.13;44.43
9521;BME280;4798;41.574;23.734;2023-04-05T11:22:30;94701.66;;;17.55;42.95
9521;BME280;4798;41.574;23.734;2023-04-05T11:25:00;94704.13;;;16.34;43.52
9521;BME280;4798;41.574;23.734;2023-04-05T11:27:30;94701.00;;;15.60;44.96
9521;BME280;4798;41.574;23.734;2023-04-05T11:30:00;94703.13;;;16.10;44.90
9521;BME280;4798;41.574;23.734;2023-04-05T11:32:39;94702.34;;;16.93;43.43
9521;BME280;4798;41.574;23.734;2023-04-05T11:35:13;94657.72;;;17.47;43.14
9521;BME280;4798;41.574;23.734;2023-04-05T11:38:05;94698.25;;;17.99;44.30
9521;BME280;4798;41.574;23.734;2023-04-05T11:40:36;94664.94;;;16.85;43.78
9521;BME280;4798;41.574;23.734;2023-04-05T11:43:08;94695.22;;;16.77;44.69
9521;BME280;4798;41.574;23.734;2023-04-05T11:45:38;94628.97;;;16.27;44.51
9521;BME280;4798;41.574;23.734;2023-04-05T11:48:10;94702.88;;;15.51;45.68
9521;BME280;4798;41.574;23.734;2023-04-05T11:50:39;94627.25;;;14.56;46.51
9521;BME280;4798;41.574;23.734;2023-04-05T11:53:09;94692.19;;;15.51;46.64
9521;BME280;4798;41.574;23.734;2023-04-05T11:55:39;94705.81;;;16.01;45.49
9521;BME280;4798;41.574;23.734;2023-04-05T11:58:13;94698.13;;;15.40;46.42
9521;BME280;4798;41.574;23.734;2023-04-05T12:00:42;94709.78;;;15.52;45.85
9521;BME280;4798;41.574;23.734;2023-04-05T12:03:13;94680.53;;;15.81;45.28
9521;BME280;4798;41.574;23.734;2023-04-05T12:05:46;94707.03;;;16.12;46.51
9521;BME280;4798;41.574;23.734;2023-04-05T12:08:18;94691.69;;;15.41;45.96
9521;BME280;4798;41.574;23.734;2023-04-05T12:10:53;94707.41;;;15.85;45.59
9521;BME280;4798;41.574;23.734;2023-04-05T12:13:26;94699.16;;;17.50;44.99
9521;BME280;4798;41.574;23.734;2023-04-05T12:15:56;94695.25;;;17.68;44.33
9521;BME280;4798;41.574;23.734;2023-04-05T12:18:30;94698.56;;;16.10;44.15
9521;BME280;4798;41.574;23.734;2023-04-05T12:20:59;94703.63;;;15.35;44.77
9521;BME280;4798;41.574;23.734;2023-04-05T12:23:32;94702.41;;;15.75;43.96
9521;BME280;4798;41.574;23.734;2023-04-05T12:26:01;94706.47;;;15.64;45.49
9521;BME280;4798;41.574;23.734;2023-04-05T12:28:48;94710.38;;;15.32;46.72
9521;BME280;4798;41.574;23.734;2023-04-05T12:31:17;94678.34;;;15.66;44.73
9521;BME280;4798;41.574;23.734;2023-04-05T12:33:47;94715.91;;;14.71;44.98
9521;BME280;4798;41.574;23.734;2023-04-05T12:36:15;94709.75;;;14.61;47.21
9521;BME280;4798;41.574;23.734;2023-04-05T12:38:43;94720.47;;;14.79;45.99
9521;BME280;4798;41.574;23.734;2023-04-05T12:41:15;94716.78;;;14.57;45.86
9521;BME280;4798;41.574;23.734;2023-04-05T12:43:43;94706.75;;;15.28;45.65
9521;BME280;4798;41.574;23.734;2023-04-05T12:46:16;94707.38;;;14.51;46.53
9521;BME280;4798;41.574;23.734;2023-04-05T12:48:50;94697.03;;;14.58;45.32
9521;BME280;4798;41.574;23.734;2023-04-05T12:51:19;94710.38;;;14.58;45.66
9521;BME280;4798;41.574;23.734;2023-04-05T12:53:47;94710.69;;;14.57;46.14
9521;BME280;4798;41.574;23.734;2023-04-05T12:56:17;94709.06;;;14.87;46.66
9521;BME280;4798;41.574;23.734;2023-04-05T12:58:48;94706.78;;;15.54;43.94
9521;BME280;4798;41.574;23.734;2023-04-05T13:01:17;94721.53;;;15.34;46.58
9521;BME280;4798;41.574;23.734;2023-04-05T13:03:46;94704.50;;;14.87;45.76
9521;BME280;4798;41.574;23.734;2023-04-05T13:06:17;94715.72;;;15.32;45.69
9521;BME280;4798;41.574;23.734;2023-04-05T13:08:45;94709.63;;;15.49;45.18
9521;BME280;4798;41.574;23.734;2023-04-05T13:11:13;94696.69;;;16.02;44.86
9521;BME280;4798;41.574;23.734;2023-04-05T13:13:42;94661.22;;;15.42;44.88
9521;BME280;4798;41.574;23.734;2023-04-05T13:16:10;94706.69;;;16.22;43.09
9521;BME280;4798;41.574;23.734;2023-04-05T13:18:38;94630.56;;;15.82;43.22
9521;BME280;4798;41.574;23.734;2023-04-05T13:21:07;94711.63;;;16.67;44.06
9521;BME280;4798;41.574;23.734;2023-04-05T13:23:38;94712.06;;;16.77;42.99
9521;BME280;4798;41.574;23.734;2023-04-05T13:26:07;94718.34;;;16.18;43.48
9521;BME280;4798;41.574;23.734;2023-04-05T13:28:35;94708.56;;;16.30;44.72
9521;BME280;4798;41.574;23.734;2023-04-05T13:31:04;94721.03;;;16.09;44.31
9521;BME280;4798;41.574;23.734;2023-04-05T13:33:34;94728.16;;;15.88;45.81
9521;BME280;4798;41.574;23.734;2023-04-05T13:36:02;94728.59;;;15.30;44.52
9521;BME280;4798;41.574;23.734;2023-04-05T13:38:30;94724.47;;;14.50;45.61